sensor_id;sensor_type;location;lat;lon;timestamp;pressure;altitude;pressure_sealevel;temperature;humidity
77311;BME280;66371;52.714;5.074;2023-05-19T10:31:00;102852.41;;;16.10;48.58
77311;BME280;66371;52.714;5.074;2023-05-19T10:36:32;102849.81;;;16.18;48.55
77311;BME280;66371;52.714;5.074;2023-05-19T10:39:33;102827.72;;;16.05;49.80
77311;BME280;66371;52.714;5.074;2023-05-19T10:45:12;102830.00;;;16.00;49.54
77311;BME280;66371;52.714;5.074;2023-05-19T10:47:40;102845.59;;;16.06;49.66
77311;BME280;66371;52.714;5.074;2023-05-19T10:50:07;102831.63;;;16.20;48.21
77311;BME280;66371;52.714;5.074;2023-05-19T10:52:36;102833.53;;;16.37;48.27
77311;BME280;66371;52.714;5.074;2023-05-19T10:55:02;102833.22;;;16.13;50.10
77311;BME280;66371;52.714;5.074;2023-05-19T10:57:29;102840.44;;;16.22;49.13
77311;BME280;66371;52.714;5.074;2023-05-19T10:59:57;102835.53;;;16.35;48.59
77311;BME280;66371;52.714;5.074;2023-05-19T11:02:43;102834.59;;;16.27;49.69
77311;BME280;66371;52.714;5.074;2023-05-19T11:05:12;102832.81;;;16.35;48.94
77311;BME280;66371;52.714;5.074;2023-05-19T11:07:55;102819.69;;;16.23;47.89
77311;BME280;66371;52.714;5.074;2023-05-19T11:10:23;102828.50;;;16.15;49.42
77311;BME280;66371;52.714;5.074;2023-05-19T11:12:50;102827.88;;;16.31;48.92
77311;BME280;66371;52.714;5.074;2023-05-19T11:15:16;102835.47;;;16.54;49.59
77311;BME280;66371;52.714;5.074;2023-05-19T11:17:45;102823.72;;;16.73;49.83
77311;BME280;66371;52.714;5.074;2023-05-19T11:20:25;102823.91;;;16.62;49.28
77311;BME280;66371;52.714;5.074;2023-05-19T11:23:08;102833.09;;;16.69;48.03
77311;BME280;66371;52.714;5.074;2023-05-19T11:26:00;102826.00;;;16.68;47.50
77311;BME280;66371;52.714;5.074;2023-05-19T11:28:26;102832.88;;;16.62;47.20
77311;BME280;66371;52.714;5.074;2023-05-19T11:30:55;102826.97;;;16.49;47.59
77311;BME280;66371;52.714;5.074;2023-05-19T11:33:22;102824.97;;;16.51;47.42
77311;BME280;66371;52.714;5.074;2023-05-19T11:35:53;102822.28;;;16.42;45.46
77311;BME280;66371;52.714;5.074;2023-05-19T11:38:19;102819.75;;;16.67;48.12
77311;BME280;66371;52.714;5.074;2023-05-19T11:40:47;102812.75;;;16.92;45.62
77311;BME280;66371;52.714;5.074;2023-05-19T11:43:14;102819.69;;;16.59;43.48
77311;BME280;66371;52.714;5.074;2023-05-19T11:45:41;102814.78;;;16.36;43.20
77311;BME280;66371;52.714;5.074;2023-05-19T11:48:10;102813.56;;;16.57;44.73
77311;BME280;66371;52.714;5.074;2023-05-19T11:50:36;102823.88;;;16.71;45.66
77311;BME280;66371;52.714;5.074;2023-05-19T11:53:02;102823.56;;;16.92;43.51
77311;BME280;66371;52.714;5.074;2023-05-19T11:55:28;102822.03;;;16.89;45.37
77311;BME280;66371;52.714;5.074;2023-05-19T11:57:57;102817.28;;;16.91;45.76
77311;BME280;66371;52.714;5.074;2023-05-19T12:00:27;102820.72;;;16.93;46.60
77311;BME280;66371;52.714;5.074;2023-05-19T12:02:53;102785.28;;;16.79;45.97
77311;BME280;66371;52.714;5.074;2023-05-19T12:05:23;102796.41;;;17.11;49.10
77311;BME280;66371;52.714;5.074;2023-05-19T12:07:50;102818.16;;;17.27;48.21
77311;BME280;66371;52.714;5.074;2023-05-19T12:10:26;102805.34;;;17.46;47.61
77311;BME280;66371;52.714;5.074;2023-05-19T12:12:53;102808.41;;;17.52;44.77
77311;BME280;66371;52.714;5.074;2023-05-19T12:15:20;102816.00;;;17.30;47.59
77311;BME280;66371;52.714;5.074;2023-05-19T12:17:59;102809.13;;;17.01;46.30
77311;BME280;66371;52.714;5.074;2023-05-19T12:20:26;102804.13;;;17.06;48.39
77311;BME280;66371;52.714;5.074;2023-05-19T12:22:53;102803.09;;;17.24;49.33
77311;BME280;66371;52.714;5.074;2023-05-19T12:25:19;102801.31;;;17.33;46.86
77311;BME280;66371;52.714;5.074;2023-05-19T12:27:45;102807.38;;;17.09;47.40
77311;BME280;66371;52.714;5.074;2023-05-19T12:30:12;102806.28;;;17.02;47.47
77311;BME280;66371;52.714;5.074;2023-05-19T12:32:38;102799.88;;;17.03;49.36
77311;BME280;66371;52.714;5.074;2023-05-19T12:35:04;102801.56;;;17.04;48.30
77311;BME280;66371;52.714;5.074;2023-05-19T12:37:30;102809.66;;;16.87;48.75
77311;BME280;66371;52.714;5.074;2023-05-19T12:39:58;102795.22;;;16.96;50.56
77311;BME280;66371;52.714;5.074;2023-05-19T12:42:26;102787.34;;;17.02;50.56
77311;BME280;66371;52.714;5.074;2023-05-19T12:44:55;102784.09;;;17.16;51.67
77311;BME280;66371;52.714;5.074;2023-05-19T12:47:21;102787.03;;;17.23;54.13
77311;BME280;66371;52.714;5.074;2023-05-19T12:50:00;102775.13;;;17.16;50.65
77311;BME280;66371;52.714;5.074;2023-05-19T12:52:27;102776.81;;;17.34;52.62
77311;BME280;66371;52.714;5.074;2023-05-19T12:55:04;102780.41;;;17.00;51.10
77311;BME280;66371;52.714;5.074;2023-05-19T12:57:38;102771.84;;;17.04;52.37
77311;BME280;66371;52.714;5.074;2023-05-19T13:00:18;102784.72;;;16.93;51.09
77311;BME280;66371;52.714;5.074;2023-05-19T13:05:37;102757.00;;;17.08;49.79
77311;BME280;66371;52.714;5.074;2023-05-19T13:08:05;102776.75;;;17.44;49.97
77311;BME280;66371;52.714;5.074;2023-05-19T13:10:33;102775.13;;;17.33;50.68
77311;BME280;66371;52.714;5.074;2023-05-19T13:12:58;102778.63;;;17.26;49.61
77311;BME280;66371;52.714;5.074;2023-05-19T13:15:29;102769.72;;;17.33;49.89
77311;BME280;66371;52.714;5.074;2023-05-19T13:18:04;102755.34;;;17.51;50.65
77311;BME280;66371;52.714;5.074;2023-05-19T13:20:30;102764.75;;;17.72;50.58
77311;BME280;66371;52.714;5.074;2023-05-19T13:22:55;102752.84;;;17.83;51.61
77311;BME280;66371;52.714;5.074;2023-05-19T13:25:21;102758.47;;;17.97;52.48
77311;BME280;66371;52.714;5.074;2023-05-19T13:27:47;102754.59;;;18.00;51.11
77311;BME280;66371;52.714;5.074;2023-05-19T13:30:13;102739.75;;;17.70;50.24
77311;BME280;66371;52.714;5.074;2023-05-19T13:32:40;102745.72;;;17.82;51.15
77311;BME280;66371;52.714;5.074;2023-05-19T13:35:06;102742.31;;;17.46;49.74
77311;BME280;66371;52.714;5.074;2023-05-19T13:37:31;102732.53;;;17.35;51.38
77311;BME280;66371;52.714;5.074;2023-05-19T13:39:57;102741.09;;;17.74;52.48
77311;BME280;66371;52.714;5.074;2023-05-19T13:42:23;102746.16;;;18.03;53.00
77311;BME280;66371;52.714;5.074;2023-05-19T13:44:48;102754.25;;;17.95;50.80
77311;BME280;66371;52.714;5.074;2023-05-19T13:47:17;102749.72;;;17.70;52.91
77311;BME280;66371;52.714;5.074;2023-05-19T13:49:43;102732.84;;;17.32;52.90
77311;BME280;66371;52.714;5.074;2023-05-19T13:52:08;102739.44;;;17.30;53.96
77311;BME280;66371;52.714;5.074;2023-05-19T13:54:34;102730.59;;;17.20;53.27
77311;BME280;66371;52.714;5.074;2023-05-19T13:56:59;102741.66;;;17.52;54.21
77311;BME280;66371;52.714;5.074;2023-05-19T13:59:25;102736.19;;;17.44;55.44
77311;BME280;66371;52.714;5.074;2023-05-19T14:01:50;102738.91;;;17.44;55.56
77311;BME280;66371;52.714;5.074;2023-05-19T14:04:17;102736.03;;;17.45;55.06
77311;BME280;66371;52.714;5.074;2023-05-19T14:06:42;102725.84;;;17.65;54.34
77311;BME280;66371;52.714;5.074;2023-05-19T14:09:08;102727.84;;;17.37;54.68
77311;BME280;66371;52.714;5.074;2023-05-19T14:11:34;102723.06;;;17.31;54.91
77311;BME280;66371;52.714;5.074;2023-05-19T14:13:59;102722.75;;;17.34;55.91
77311;BME280;66371;52.714;5.074;2023-05-19T14:16:25;102714.09;;;17.31;56.81
77311;BME280;66371;52.714;5.074;2023-05-19T14:18:51;102732.13;;;17.66;56.90
77311;BME280;66371;52.714;5.074;2023-05-19T14:21:17;102729.09;;;17.69;55.34
77311;BME280;66371;52.714;5.074;2023-05-19T14:23:42;102709.59;;;17.39;54.52
77311;BME280;66371;52.714;5.074;2023-05-19T14:26:08;102716.47;;;17.34;56.18
77311;BME280;66371;52.714;5.074;2023-05-19T14:28:33;102715.00;;;17.39;55.06
77311;BME280;66371;52.714;5.074;2023-05-19T14:30:58;102706.44;;;17.18;55.45
77311;BME280;66371;52.714;5.074;2023-05-19T14:33:24;102726.25;;;17.44;55.86
77311;BME280;66371;52.714;5.074;2023-05-19T14:35:49;102724.09;;;17.13;54.86
77311;BME280;66371;52.714;5.074;2023-05-19T14:38:15;102724.72;;;17.24;56.76
77311;BME280;66371;52.714;5.074;2023-05-19T14:40:40;102701.97;;;17.09;54.68
77311;BME280;66371;52.714;5.074;2023-05-19T14:43:06;102725.38;;;17.26;53.91
77311;BME280;66371;52.714;5.074;2023-05-19T14:45:31;102713.91;;;17.24;55.02
77311;BME280;66371;52.714;5.074;2023-05-19T14:47:57;102713.41;;;17.03;51.79
77311;BME280;66371;52.714;5.074;2023-05-19T14:50:23;102722.97;;;17.15;53.28
77311;BME280;66371;52.714;5.074;2023-05-19T14:52:48;102712.16;;;17.41;52.65
77311;BME280;66371;52.714;5.074;2023-05-19T14:55:13;102723.97;;;17.40;50.90
77311;BME280;66371;52.714;5.074;2023-05-19T14:57:39;102722.31;;;17.21;51.06
77311;BME280;66371;52.714;5.074;2023-05-19T15:00:05;102712.38;;;17.04;52.06
77311;BME280;66371;52.714;5.074;2023-05-19T15:02:30;102712.19;;;17.23;53.38
77311;BME280;66371;52.714;5.074;2023-05-19T15:04:56;102714.38;;;17.20;51.00
77311;BME280;66371;52.714;5.074;2023-05-19T15:07:21;102689.34;;;16.92;49.26
77311;BME280;66371;52.714;5.074;2023-05-19T15:09:48;102695.44;;;16.77;49.73
77311;BME280;66371;52.714;5.074;2023-05-19T15:12:13;102704.06;;;16.98;49.60
77311;BME280;66371;52.714;5.074;2023-05-19T15:14:39;102706.53;;;16.91;48.43
77311;BME280;66371;52.714;5.074;2023-05-19T15:17:04;102704.84;;;17.08;49.38
77311;BME280;66371;52.714;5.074;2023-05-19T15:19:30;102704.06;;;16.98;49.41
77311;BME280;66371;52.714;5.074;2023-05-19T15:21:55;102709.47;;;17.23;50.26
77311;BME280;66371;52.714;5.074;2023-05-19T15:24:20;102708.50;;;17.24;49.35
77311;BME280;66371;52.714;5.074;2023-05-19T15:26:46;102707.31;;;17.44;50.36
77311;BME280;66371;52.714;5.074;2023-05-19T15:29:12;102683.28;;;17.41;51.27
77311;BME280;66371;52.714;5.074;2023-05-19T15:31:37;102693.97;;;17.25;51.41
77311;BME280;66371;52.714;5.074;2023-05-19T15:34:02;102701.34;;;17.15;51.78
77311;BME280;66371;52.714;5.074;2023-05-19T15:36:28;102705.63;;;17.26;53.47
77311;BME280;66371;52.714;5.074;2023-05-19T15:38:53;102692.16;;;17.08;53.28
77311;BME280;66371;52.714;5.074;2023-05-19T15:41:18;102696.19;;;16.87;51.71
77311;BME280;66371;52.714;5.074;2023-05-19T15:43:44;102692.47;;;17.05;53.41
77311;BME280;66371;52.714;5.074;2023-05-19T15:46:10;102692.16;;;17.34;53.26
77311;BME280;66371;52.714;5.074;2023-05-19T15:48:37;102678.59;;;17.26;53.25
77311;BME280;66371;52.714;5.074;2023-05-19T15:51:03;102682.66;;;17.04;53.78
77311;BME280;66371;52.714;5.074;2023-05-19T15:53:28;102674.41;;;17.31;53.84
77311;BME280;66371;52.714;5.074;2023-05-19T15:55:54;102685.63;;;17.19;54.50
77311;BME280;66371;52.714;5.074;2023-05-19T15:58:21;102686.06;;;17.32;54.26
77311;BME280;66371;52.714;5.074;2023-05-19T16:00:46;102686.72;;;17.52;54.39
77311;BME280;66371;52.714;5.074;2023-05-19T16:03:12;102671.22;;;17.10;55.26
77311;BME280;66371;52.714;5.074;2023-05-19T16:05:37;102676.31;;;17.13;57.10
77311;BME280;66371;52.714;5.074;2023-05-19T16:08:03;102676.41;;;17.04;57.38
77311;BME280;66371;52.714;5.074;2023-05-19T16:10:28;102678.63;;;17.08;57.96
77311;BME280;66371;52.714;5.074;2023-05-19T16:12:54;102681.34;;;17.08;57.71
77311;BME280;66371;52.714;5.074;2023-05-19T16:15:19;102657.56;;;16.94;58.30
77311;BME280;66371;52.714;5.074;2023-05-19T16:17:44;102667.38;;;16.70;59.91
77311;BME280;66371;52.714;5.074;2023-05-19T16:20:10;102673.53;;;16.80;59.74
77311;BME280;66371;52.714;5.074;2023-05-19T16:22:35;102674.88;;;16.84;60.19
77311;BME280;66371;52.714;5.074;2023-05-19T16:25:01;102647.53;;;16.61;60.60
77311;BME280;66371;52.714;5.074;2023-05-19T16:27:26;102676.56;;;16.59;61.14
77311;BME280;66371;52.714;5.074;2023-05-19T16:29:52;102663.09;;;16.67;61.15
77311;BME280;66371;52.714;5.074;2023-05-19T16:32:17;102667.22;;;16.54;61.66
77311;BME280;66371;52.714;5.074;2023-05-19T16:34:43;102662.16;;;16.41;61.70
77311;BME280;66371;52.714;5.074;2023-05-19T16:37:08;102657.69;;;16.32;61.90
77311;BME280;66371;52.714;5.074;2023-05-19T16:39:37;102673.53;;;16.45;62.85
77311;BME280;66371;52.714;5.074;2023-05-19T16:42:03;102658.25;;;16.53;63.55
77311;BME280;66371;52.714;5.074;2023-05-19T16:44:28;102647.59;;;16.34;63.94
77311;BME280;66371;52.714;5.074;2023-05-19T16:46:54;102646.81;;;16.24;63.82
77311;BME280;66371;52.714;5.074;2023-05-19T16:49:19;102659.69;;;16.30;64.53
77311;BME280;66371;52.714;5.074;2023-05-19T16:51:44;102666.09;;;16.29;65.18
77311;BME280;66371;52.714;5.074;2023-05-19T16:54:10;102661.50;;;16.12;65.35
77311;BME280;66371;52.714;5.074;2023-05-19T16:56:35;102660.88;;;16.01;66.31
77311;BME280;66371;52.714;5.074;2023-05-19T16:59:00;102636.19;;;15.78;66.68
77311;BME280;66371;52.714;5.074;2023-05-19T17:01:26;102662.88;;;15.71;67.14
77311;BME280;66371;52.714;5.074;2023-05-19T17:03:51;102642.06;;;15.64;68.03
77311;BME280;66371;52.714;5.074;2023-05-19T17:06:17;102664.28;;;15.75;68.85
77311;BME280;66371;52.714;5.074;2023-05-19T17:08:42;102663.75;;;15.72;68.70
77311;BME280;66371;52.714;5.074;2023-05-19T17:11:07;102666.03;;;15.67;68.16
77311;BME280;66371;52.714;5.074;2023-05-19T17:13:33;102662.53;;;15.57;67.83
77311;BME280;66371;52.714;5.074;2023-05-19T17:16:01;102653.31;;;15.59;67.94
77311;BME280;66371;52.714;5.074;2023-05-19T17:18:26;102662.94;;;15.62;67.67
77311;BME280;66371;52.714;5.074;2023-05-19T17:20:52;102669.91;;;15.55;68.83
77311;BME280;66371;52.714;5.074;2023-05-19T17:23:17;102663.53;;;15.56;69.33
77311;BME280;66371;52.714;5.074;2023-05-19T17:25:43;102663.06;;;15.60;69.99
77311;BME280;66371;52.714;5.074;2023-05-19T17:28:08;102676.41;;;15.62;68.55
77311;BME280;66371;52.714;5.074;2023-05-19T17:30:33;102672.72;;;15.63;68.09
77311;BME280;66371;52.714;5.074;2023-05-19T17:32:59;102671.69;;;15.73;67.46
77311;BME280;66371;52.714;5.074;2023-05-19T17:35:25;102658.06;;;15.75;66.59
77311;BME280;66371;52.714;5.074;2023-05-19T17:37:50;102668.94;;;15.83;66.25
77311;BME280;66371;52.714;5.074;2023-05-19T17:40:15;102673.75;;;15.89;66.24
77311;BME280;66371;52.714;5.074;2023-05-19T17:42:41;102668.72;;;15.94;65.80
77311;BME280;66371;52.714;5.074;2023-05-19T17:45:07;102635.06;;;15.71;65.70
77311;BME280;66371;52.714;5.074;2023-05-19T17:47:36;102675.84;;;15.95;65.66
77311;BME280;66371;52.714;5.074;2023-05-19T17:50:01;102674.06;;;16.04;65.33
77311;BME280;66371;52.714;5.074;2023-05-19T17:52:27;102665.81;;;16.05;65.50
77311;BME280;66371;52.714;5.074;2023-05-19T17:54:52;102670.31;;;16.14;65.28
77311;BME280;66371;52.714;5.074;2023-05-19T17:57:19;102675.66;;;16.24;65.22
77311;BME280;66371;52.714;5.074;2023-05-19T17:59:48;102675.00;;;16.12;64.49
77311;BME280;66371;52.714;5.074;2023-05-19T18:02:14;102682.06;;;15.96;65.29
77311;BME280;66371;52.714;5.074;2023-05-19T18:04:40;102683.31;;;16.01;64.94
77311;BME280;66371;52.714;5.074;2023-05-19T18:07:08;102694.72;;;15.95;65.65
77311;BME280;66371;52.714;5.074;2023-05-19T18:09:35;102695.47;;;15.88;65.73
77311;BME280;66371;52.714;5.074;2023-05-19T18:12:03;102698.94;;;15.70;66.38
77311;BME280;66371;52.714;5.074;2023-05-19T18:14:29;102700.66;;;15.71;66.81
77311;BME280;66371;52.714;5.074;2023-05-19T18:16:55;102689.69;;;15.46;68.16
77311;BME280;66371;52.714;5.074;2023-05-19T18:19:20;102714.38;;;15.41;68.82
77311;BME280;66371;52.714;5.074;2023-05-19T18:21:45;102710.09;;;15.39;68.81
77311;BME280;66371;52.714;5.074;2023-05-19T21:21:32;102813.50;;;12.45;76.55
77311;BME280;66371;52.714;5.074;2023-05-19T21:23:58;102815.38;;;12.33;76.45
77311;BME280;66371;52.714;5.074;2023-05-19T21:26:24;102815.63;;;12.30;76.27
77311;BME280;66371;52.714;5.074;2023-05-19T21:28:51;102809.63;;;12.27;76.12
77311;BME280;66371;52.714;5.074;2023-05-19T21:31:16;102814.63;;;12.20;77.18
77311;BME280;66371;52.714;5.074;2023-05-19T21:33:42;102817.44;;;12.19;77.15
77311;BME280;66371;52.714;5.074;2023-05-19T21:36:07;102822.81;;;12.19;77.14
77311;BME280;66371;52.714;5.074;2023-05-19T21:38:33;102823.03;;;12.16;77.31
77311;BME280;66371;52.714;5.074;2023-05-19T21:40:58;102815.13;;;12.14;77.46
77311;BME280;66371;52.714;5.074;2023-05-19T21:43:23;102818.06;;;12.11;77.69
77311;BME280;66371;52.714;5.074;2023-05-19T21:45:49;102804.31;;;12.05;78.16
77311;BME280;66371;52.714;5.074;2023-05-19T21:48:14;102820.16;;;12.08;78.46
77311;BME280;66371;52.714;5.074;2023-05-19T21:50:40;102822.09;;;12.06;78.20
77311;BME280;66371;52.714;5.074;2023-05-19T21:53:05;102817.59;;;12.06;78.13
77311;BME280;66371;52.714;5.074;2023-05-19T21:55:31;102821.47;;;12.02;79.26
77311;BME280;66371;52.714;5.074;2023-05-19T21:57:56;102824.38;;;11.99;79.47
77311;BME280;66371;52.714;5.074;2023-05-19T22:00:21;102820.00;;;11.98;79.94
77311;BME280;66371;52.714;5.074;2023-05-19T22:02:48;102818.44;;;11.96;79.44
77311;BME280;66371;52.714;5.074;2023-05-19T22:05:13;102814.28;;;11.92;80.22
77311;BME280;66371;52.714;5.074;2023-05-19T22:07:39;102820.63;;;11.91;80.50
77311;BME280;66371;52.714;5.074;2023-05-19T22:10:04;102809.41;;;11.86;81.11
77311;BME280;66371;52.714;5.074;2023-05-19T22:12:30;102812.94;;;11.86;80.87
77311;BME280;66371;52.714;5.074;2023-05-19T22:14:56;102819.38;;;11.84;81.77
77311;BME280;66371;52.714;5.074;2023-05-19T22:17:22;102815.47;;;11.77;82.03
77311;BME280;66371;52.714;5.074;2023-05-19T22:19:47;102812.94;;;11.75;81.98
77311;BME280;66371;52.714;5.074;2023-05-19T22:22:13;102816.94;;;11.81;81.49
77311;BME280;66371;52.714;5.074;2023-05-19T22:24:38;102811.34;;;11.84;81.57
77311;BME280;66371;52.714;5.074;2023-05-19T22:27:06;102814.75;;;11.86;81.87
77311;BME280;66371;52.714;5.074;2023-05-19T22:29:31;102813.06;;;11.85;81.43
77311;BME280;66371;52.714;5.074;2023-05-19T22:31:57;102811.34;;;11.84;81.39
77311;BME280;66371;52.714;5.074;2023-05-19T22:34:22;102802.09;;;11.88;81.78
77311;BME280;66371;52.714;5.074;2023-05-19T22:36:48;102806.34;;;11.90;81.04
77311;BME280;66371;52.714;5.074;2023-05-19T22:39:13;102796.88;;;11.86;81.88
77311;BME280;66371;52.714;5.074;2023-05-19T22:41:39;102814.75;;;11.86;81.83
77311;BME280;66371;52.714;5.074;2023-05-19T22:44:04;102814.53;;;11.89;82.29
77311;BME280;66371;52.714;5.074;2023-05-19T22:46:30;102811.25;;;11.85;82.77
77311;BME280;66371;52.714;5.074;2023-05-19T22:48:56;102813.06;;;11.85;82.68
77311;BME280;66371;52.714;5.074;2023-05-19T22:51:21;102811.34;;;11.84;82.12
77311;BME280;66371;52.714;5.074;2023-05-19T22:53:47;102809.53;;;11.84;82.46
77311;BME280;66371;52.714;5.074;2023-05-19T22:56:13;102811.59;;;11.81;82.35
77311;BME280;66371;52.714;5.074;2023-05-19T22:58:38;102815.88;;;11.83;82.88
77311;BME280;66371;52.714;5.074;2023-05-19T23:01:04;102808.19;;;11.79;83.46
77311;BME280;66371;52.714;5.074;2023-05-19T23:03:29;102808.19;;;11.79;83.76
77311;BME280;66371;52.714;5.074;2023-05-19T23:05:55;102808.66;;;11.73;83.89
77311;BME280;66371;52.714;5.074;2023-05-19T23:08:20;102805.25;;;11.71;84.31
77311;BME280;66371;52.714;5.074;2023-05-19T23:10:46;102795.34;;;11.60;85.31
77311;BME280;66371;52.714;5.074;2023-05-19T23:13:13;102793.75;;;11.58;84.91
77311;BME280;66371;52.714;5.074;2023-05-19T23:15:39;102794.72;;;11.57;85.19
77311;BME280;66371;52.714;5.074;2023-05-19T23:18:04;102794.00;;;11.55;85.26
77311;BME280;66371;52.714;5.074;2023-05-19T23:20:33;102797.03;;;11.61;85.11
77311;BME280;66371;52.714;5.074;2023-05-19T23:22:59;102796.94;;;11.63;84.83
77311;BME280;66371;52.714;5.074;2023-05-19T23:25:25;102790.09;;;11.59;85.40
77311;BME280;66371;52.714;5.074;2023-05-19T23:27:51;102796.94;;;11.63;84.90
77311;BME280;66371;52.714;5.074;2023-05-19T23:30:16;102796.22;;;11.72;84.74
77311;BME280;66371;52.714;5.074;2023-05-19T23:32:42;102795.41;;;11.71;84.73
77311;BME280;66371;52.714;5.074;2023-05-19T23:35:09;102801.59;;;11.72;84.05
77311;BME280;66371;52.714;5.074;2023-05-19T23:37:34;102802.69;;;11.69;84.37
77311;BME280;66371;52.714;5.074;2023-05-19T23:40:00;102800.56;;;11.62;84.48
77311;BME280;66371;52.714;5.074;2023-05-19T23:42:25;102801.34;;;11.64;84.73
77311;BME280;66371;52.714;5.074;2023-05-19T23:44:50;102800.69;;;11.60;84.79
77311;BME280;66371;52.714;5.074;2023-05-19T23:47:16;102798.88;;;11.61;84.90
77311;BME280;66371;52.714;5.074;2023-05-19T23:49:41;102796.31;;;11.59;85.27
77311;BME280;66371;52.714;5.074;2023-05-19T23:52:06;102796.56;;;11.56;85.34
77311;BME280;66371;52.714;5.074;2023-05-19T23:54:32;102795.69;;;11.56;85.55
77311;BME280;66371;52.714;5.074;2023-05-19T23:56:57;102792.41;;;11.52;86.01
77311;BME280;66371;52.714;5.074;2023-05-19T23:59:23;102790.31;;;11.45;86.75
